Time;durP1;ratioP1;P1;durP2;ratioP2;P2;SDS_P1;SDS_P2;PMS_P1;PMS_P2;Temp;Humidity;BMP_temperature;BMP_pressure;BME280_temperature;BME280_humidity;BME280_pressure;Samples;Min_cycle;Max_cycle;Signal;HPM_P1;HPM_P2
2023/03/27 00:00:43;;;;;;;1999.90;999.90;;;3.80;99.90;;;;;;5072060;28;20504;-68
2023/03/27 00:03:10;;;;;;;1999.90;999.90;;;3.70;99.90;;;;;;5071887;28;20445;-68
2023/03/27 00:05:35;;;;;;;1999.90;999.90;;;3.50;99.90;;;;;;5072000;28;20406;-69
2023/03/27 00:08:02;;;;;;;1999.90;999.90;;;3.70;99.90;;;;;;5071869;28;20930;-68
2023/03/27 00:10:28;;;;;;;1999.90;999.90;;;3.70;99.90;;;;;;5071120;28;20194;-68
2023/03/27 00:12:54;;;;;;;1999.90;999.90;;;3.60;99.90;;;;;;5071801;28;20402;-70
2023/03/27 00:15:20;;;;;;;1999.90;999.90;;;3.60;99.90;;;;;;5072023;28;20169;-68
2023/03/27 00:17:48;;;;;;;1999.90;999.90;;;3.60;99.90;;;;;;5071727;28;20966;-69
2023/03/27 00:20:21;;;;;;;1999.90;999.90;;;3.60;99.90;;;;;;5071915;28;20931;-69
2023/03/27 00:22:54;;;;;;;1999.90;999.90;;;3.50;99.90;;;;;;5071762;28;20475;-69
2023/03/27 00:25:21;;;;;;;1999.90;999.90;;;3.50;99.90;;;;;;5072074;28;20403;-68
2023/03/27 00:27:48;;;;;;;1999.90;999.90;;;3.40;99.90;;;;;;5071617;28;20248;-69
2023/03/27 00:30:14;;;;;;;1999.90;999.90;;;3.40;99.90;;;;;;5072060;28;20452;-69
2023/03/27 00:32:40;;;;;;;1999.90;999.90;;;3.40;99.90;;;;;;5071519;28;20915;-70
2023/03/27 00:35:08;;;;;;;1999.90;999.90;;;3.40;99.90;;;;;;5071752;28;20455;-69
2023/03/27 00:37:36;;;;;;;1999.90;999.90;;;3.40;99.90;;;;;;5071560;28;20797;-69
2023/03/27 00:40:14;;;;;;;1999.90;999.90;;;3.40;99.90;;;;;;5071904;28;20930;-69
2023/03/27 00:42:40;;;;;;;1999.90;999.90;;;3.30;99.90;;;;;;5071513;28;20428;-69
2023/03/27 00:45:13;;;;;;;1999.90;999.90;;;3.30;99.90;;;;;;5071715;28;20424;-68
2023/03/27 00:47:39;;;;;;;1999.90;999.90;;;3.20;99.90;;;;;;5070365;28;20417;-68
2023/03/27 00:50:09;;;;;;;1999.90;999.90;;;3.20;99.90;;;;;;5071767;28;20514;-70
2023/03/27 00:52:40;;;;;;;1999.90;999.90;;;3.20;99.90;;;;;;5071411;28;20217;-69
2023/03/27 00:55:13;;;;;;;1999.90;999.90;;;3.20;99.90;;;;;;5071647;28;20466;-69
2023/03/27 00:57:39;;;;;;;1999.90;999.90;;;3.20;99.90;;;;;;5071358;28;20483;-70
2023/03/27 01:00:12;;;;;;;1999.90;999.90;;;3.20;99.90;;;;;;5071339;28;20409;-70
2023/03/27 01:02:45;;;;;;;1999.90;999.90;;;3.10;99.90;;;;;;5071540;28;20416;-69
2023/03/27 01:05:11;;;;;;;1999.90;999.90;;;3.10;99.90;;;;;;5071536;28;20675;-69
2023/03/27 01:07:39;;;;;;;1999.90;999.90;;;3.10;99.90;;;;;;5071310;28;20202;-69
2023/03/27 01:10:06;;;;;;;1999.90;999.90;;;3.00;99.90;;;;;;5071316;28;20467;-69
2023/03/27 01:12:58;;;;;;;1999.90;999.90;;;3.00;99.90;;;;;;5071082;28;20494;-69
2023/03/27 01:15:27;;;;;;;1999.90;999.90;;;3.00;99.90;;;;;;5071363;28;20401;-69
2023/03/27 01:18:13;;;;;;;1999.90;999.90;;;3.00;99.90;;;;;;5071240;28;20218;-69
2023/03/27 01:21:11;;;;;;;1999.90;999.90;;;2.90;99.90;;;;;;5071949;28;20478;-69
2023/03/27 01:23:49;;;;;;;1999.90;999.90;;;2.90;99.90;;;;;;5074765;28;20405;-69
2023/03/27 01:26:45;;;;;;;1999.90;999.90;;;2.90;99.90;;;;;;5074884;28;20489;-69
2023/03/27 01:29:30;;;;;;;1999.90;999.90;;;2.90;99.90;;;;;;5074730;28;20511;-69
2023/03/27 01:32:05;;;;;;;1999.90;999.90;;;2.90;99.90;;;;;;5074899;28;20167;-69
2023/03/27 01:34:56;;;;;;;1999.90;999.90;;;2.80;99.90;;;;;;5074732;28;20487;-69
2023/03/27 01:38:03;;;;;;;1999.90;999.90;;;2.80;99.90;;;;;;5074454;28;20194;-68
2023/03/27 01:40:33;;;;;;;1999.90;999.90;;;2.80;99.90;;;;;;5074567;28;20179;-68
2023/03/27 01:43:05;;;;;;;1999.90;999.90;;;2.80;99.90;;;;;;5074446;28;20174;-69
2023/03/27 01:45:34;;;;;;;1999.90;999.90;;;2.80;99.90;;;;;;5074591;28;20170;-68
2023/03/27 01:48:23;;;;;;;1999.90;999.90;;;2.70;99.90;;;;;;5074482;28;20648;-68
2023/03/27 01:51:01;;;;;;;1999.90;999.90;;;2.70;99.90;;;;;;5074550;28;20163;-69
2023/03/27 01:53:36;;;;;;;1999.90;999.90;;;2.70;99.90;;;;;;5074312;28;20895;-68
2023/03/27 01:56:30;;;;;;;1999.90;999.90;;;2.70;99.90;;;;;;5074409;28;20194;-68
2023/03/27 01:59:05;;;;;;;1999.90;999.90;;;2.70;99.90;;;;;;5074583;28;20207;-69
2023/03/27 02:01:36;;;;;;;1999.90;999.90;;;2.60;99.90;;;;;;5074333;28;20178;-69
2023/03/27 02:04:04;;;;;;;1999.90;999.90;;;2.60;99.90;;;;;;5074207;28;20174;-68
2023/03/27 02:06:34;;;;;;;1999.90;999.90;;;2.60;99.90;;;;;;5074054;28;20230;-69
2023/03/27 02:09:16;;;;;;;1999.90;999.90;;;2.60;99.90;;;;;;5074039;28;20460;-68
2023/03/27 02:12:15;;;;;;;1999.90;999.90;;;2.50;99.90;;;;;;5074137;28;20217;-68
2023/03/27 02:14:51;;;;;;;1999.90;999.90;;;2.50;99.90;;;;;;5059857;28;20233;-68
2023/03/27 02:17:19;;;;;;;1999.90;999.90;;;2.50;99.90;;;;;;5073792;28;20199;-68
2023/03/27 02:20:15;;;;;;;1999.90;999.90;;;2.50;99.90;;;;;;5074076;28;20577;-69
2023/03/27 02:22:42;;;;;;;1999.90;999.90;;;2.40;99.90;;;;;;5073798;28;20217;-69
2023/03/27 02:25:28;;;;;;;1999.90;999.90;;;2.40;99.90;;;;;;5073769;28;20170;-69
2023/03/27 02:28:30;;;;;;;1999.90;999.90;;;2.40;99.90;;;;;;5073932;28;20199;-68
2023/03/27 02:31:17;;;;;;;1999.90;999.90;;;2.40;99.90;;;;;;5073837;28;20550;-68
2023/03/27 02:34:10;;;;;;;1999.90;999.90;;;2.30;99.90;;;;;;5072751;28;20190;-69
2023/03/27 02:37:02;;;;;;;1999.90;999.90;;;2.30;99.90;;;;;;5073394;28;20191;-69
2023/03/27 02:39:42;;;;;;;1999.90;999.90;;;2.20;99.90;;;;;;5073633;28;20171;-69
2023/03/27 02:42:53;;;;;;;1999.90;999.90;;;2.20;99.90;;;;;;5073450;28;20402;-69
2023/03/27 02:45:48;;;;;;;1999.90;999.90;;;2.90;99.90;;;;;;5073632;28;20270;-68
2023/03/27 02:48:23;;;;;;;1999.90;999.90;;;2.20;99.90;;;;;;5051817;28;20171;-69
2023/03/27 02:50:54;;;;;;;1999.90;999.90;;;2.20;99.90;;;;;;5073306;28;20261;-69
2023/03/27 02:53:23;;;;;;;1999.90;999.90;;;2.20;99.90;;;;;;5073096;28;20167;-69
2023/03/27 02:55:53;;;;;;;1999.90;999.90;;;2.40;99.90;;;;;;5073045;28;20194;-69
2023/03/27 02:58:52;;;;;;;1999.90;999.90;;;2.20;99.90;;;;;;5073279;28;20174;-69
2023/03/27 03:01:21;;;;;;;1999.90;999.90;;;2.20;99.90;;;;;;5073054;28;20160;-69
2023/03/27 03:04:06;;;;;;;1999.90;999.90;;;2.20;99.90;;;;;;5073030;28;20179;-68
2023/03/27 03:06:31;;;;;;;1999.90;999.90;;;2.20;99.90;;;;;;5072931;28;20556;-68
2023/03/27 03:09:04;;;;;;;1999.90;999.90;;;2.30;99.90;;;;;;5072987;28;20202;-68
2023/03/27 03:11:33;;;;;;;1999.90;999.90;;;2.30;99.90;;;;;;5073286;28;20546;-68
2023/03/27 03:13:59;;;;;;;1999.90;999.90;;;2.20;99.90;;;;;;5072834;28;20171;-68
2023/03/27 03:16:26;;;;;;;1999.90;999.90;;;2.20;99.90;;;;;;5072695;28;20215;-68
2023/03/27 03:18:51;;;;;;;1999.90;999.90;;;2.20;99.90;;;;;;5072749;28;20212;-69
2023/03/27 03:21:17;;;;;;;1999.90;999.90;;;2.20;99.90;;;;;;5072745;28;20171;-68
2023/03/27 03:23:43;;;;;;;1999.90;999.90;;;2.20;99.90;;;;;;5072450;28;20593;-68
2023/03/27 03:26:09;;;;;;;1999.90;999.90;;;2.10;99.90;;;;;;5072365;28;20198;-69
2023/03/27 03:28:35;;;;;;;1999.90;999.90;;;2.10;99.90;;;;;;5072641;28;20205;-69
2023/03/27 03:31:04;;;;;;;1999.90;999.90;;;2.10;99.90;;;;;;5072610;28;20413;-69
2023/03/27 03:33:30;;;;;;;1999.90;999.90;;;2.10;99.90;;;;;;5072310;28;20159;-69
2023/03/27 03:35:59;;;;;;;1999.90;999.90;;;2.10;99.90;;;;;;5072298;28;20178;-69
2023/03/27 03:38:26;;;;;;;1999.90;999.90;;;2.00;99.90;;;;;;5072458;28;20409;-69
2023/03/27 03:40:57;;;;;;;1999.90;999.90;;;2.00;99.90;;;;;;5072329;28;20576;-68
2023/03/27 03:43:25;;;;;;;1999.90;999.90;;;2.00;99.90;;;;;;5072051;28;20167;-68
2023/03/27 03:45:51;;;;;;;1999.90;999.90;;;1.90;99.90;;;;;;5072205;28;20166;-69
2023/03/27 03:48:17;;;;;;;1999.90;999.90;;;1.90;99.90;;;;;;5072326;28;20174;-69
2023/03/27 03:50:44;;;;;;;1999.90;999.90;;;1.90;99.90;;;;;;5072178;28;20539;-69
2023/03/27 03:53:10;;;;;;;1999.90;999.90;;;1.90;99.90;;;;;;5071916;28;20179;-68
2023/03/27 03:55:36;;;;;;;1999.90;999.90;;;;;;;;;;5072218;28;20163;-68
2023/03/27 03:58:03;;;;;;;1999.90;999.90;;;2.60;99.90;;;;;;5072043;28;20517;-68
2023/03/27 04:00:28;;;;;;;1999.90;999.90;;;1.90;99.90;;;;;;5072367;28;20584;-68
2023/03/27 04:02:55;;;;;;;1999.90;999.90;;;1.90;99.90;;;;;;5071983;28;20189;-69
2023/03/27 04:05:21;;;;;;;1999.90;999.90;;;2.00;99.90;;;;;;5071930;28;20183;-68
2023/03/27 04:07:48;;;;;;;1999.90;999.90;;;2.00;99.90;;;;;;5072484;28;20199;-68
2023/03/27 04:10:14;;;;;;;1999.90;999.90;;;2.00;99.90;;;;;;5072124;28;20452;-68
2023/03/27 04:12:40;;;;;;;1999.90;999.90;;;2.00;99.90;;;;;;5071795;28;20182;-68
2023/03/27 04:15:06;;;;;;;1999.90;999.90;;;2.00;99.90;;;;;;5071989;28;20397;-69
2023/03/27 04:17:32;;;;;;;1999.90;999.90;;;1.90;99.90;;;;;;5071780;28;20231;-68
2023/03/27 04:19:58;;;;;;;1999.90;999.90;;;1.90;99.90;;;;;;5071955;28;20210;-68
2023/03/27 04:22:25;;;;;;;1999.90;999.90;;;1.90;99.90;;;;;;5072094;28;20186;-69
2023/03/27 04:24:52;;;;;;;1999.90;999.90;;;1.90;99.90;;;;;;5071687;28;20194;-68
2023/03/27 04:27:19;;;;;;;1999.90;999.90;;;1.90;99.90;;;;;;5071775;28;20201;-69
2023/03/27 04:29:46;;;;;;;1999.90;999.90;;;1.90;99.90;;;;;;5071747;28;20206;-69
2023/03/27 04:32:18;;;;;;;1999.90;999.90;;;1.90;99.90;;;;;;5071820;28;20163;-69
2023/03/27 04:34:45;;;;;;;1999.90;999.90;;;1.90;99.90;;;;;;5071582;28;20607;-69
2023/03/27 04:37:11;;;;;;;1999.90;999.90;;;1.90;99.90;;;;;;5071511;28;20179;-69
2023/03/27 04:39:41;;;;;;;1999.90;999.90;;;1.90;99.90;;;;;;5071765;28;20680;-69
2023/03/27 04:42:09;;;;;;;1999.90;999.90;;;2.00;99.90;;;;;;5071681;28;20244;-68
2023/03/27 04:44:35;;;;;;;1999.90;999.90;;;2.00;99.90;;;;;;5071862;28;20190;-69
2023/03/27 04:47:01;;;;;;;1999.90;999.90;;;2.10;99.90;;;;;;5071463;28;20190;-68
2023/03/27 04:49:28;;;;;;;1999.90;999.90;;;2.10;99.90;;;;;;5071714;28;20209;-68
2023/03/27 04:51:54;;;;;;;1999.90;999.90;;;2.20;99.90;;;;;;5071506;28;20404;-69
2023/03/27 04:54:21;;;;;;;1999.90;999.90;;;2.20;99.90;;;;;;5071372;28;20183;-68
2023/03/27 04:56:50;;;;;;;1999.90;999.90;;;2.30;99.90;;;;;;5073712;28;20441;-69
2023/03/27 04:59:16;;;;;;;1999.90;999.90;;;2.30;99.90;;;;;;5075577;28;20182;-68
2023/03/27 05:01:41;;;;;;;1999.90;999.90;;;2.40;99.90;;;;;;5075370;28;20629;-69
2023/03/27 05:04:07;;;;;;;1999.90;999.90;;;2.40;99.90;;;;;;5075155;28;20167;-68
2023/03/27 05:06:33;;;;;;;1999.90;999.90;;;2.40;99.90;;;;;;5075188;28;20186;-69
2023/03/27 05:08:58;;;;;;;1999.90;999.90;;;2.40;99.90;;;;;;5075291;28;20609;-69
2023/03/27 05:11:24;;;;;;;1999.90;999.90;;;2.50;99.90;;;;;;5075162;28;20674;-69
2023/03/27 05:13:50;;;;;;;1999.90;999.90;;;2.50;99.90;;;;;;5074953;28;20254;-69
2023/03/27 05:16:16;;;;;;;1999.90;999.90;;;2.50;99.90;;;;;;5074911;28;20279;-68
2023/03/27 05:18:43;;;;;;;1999.90;999.90;;;2.50;99.90;;;;;;5075291;28;20178;-69
2023/03/27 05:21:10;;;;;;;1999.90;999.90;;;2.50;99.90;;;;;;5075213;28;20178;-69
2023/03/27 05:23:37;;;;;;;1999.90;999.90;;;2.50;99.90;;;;;;5074850;28;20272;-69
2023/03/27 05:26:03;;;;;;;1999.90;999.90;;;2.60;99.90;;;;;;5074780;28;20281;-69
2023/03/27 05:28:29;;;;;;;1999.90;999.90;;;2.60;99.90;;;;;;5074940;28;20179;-68
2023/03/27 05:30:55;;;;;;;1999.90;999.90;;;2.60;99.90;;;;;;5074847;28;20171;-68
2023/03/27 05:33:22;;;;;;;1999.90;999.90;;;2.60;99.90;;;;;;5074912;28;20175;-68
2023/03/27 05:35:51;;;;;;;1999.90;999.90;;;2.60;99.90;;;;;;5074721;28;20171;-69
2023/03/27 05:38:17;;;;;;;1999.90;999.90;;;2.70;99.90;;;;;;5074696;28;20171;-69
2023/03/27 05:40:43;;;;;;;1999.90;999.90;;;2.70;99.90;;;;;;5074513;28;20946;-69
2023/03/27 05:43:09;;;;;;;1999.90;999.90;;;2.70;99.90;;;;;;5074797;28;20278;-69
2023/03/27 05:45:35;;;;;;;1999.90;999.90;;;2.70;99.90;;;;;;5074512;28;20175;-69
2023/03/27 05:48:01;;;;;;;1999.90;999.90;;;2.80;99.90;;;;;;5074381;28;20429;-69
2023/03/27 05:50:33;;;;;;;1999.90;999.90;;;2.80;99.90;;;;;;5074411;28;20485;-69
2023/03/27 05:53:01;;;;;;;1999.90;999.90;;;2.80;99.90;;;;;;5074421;28;20408;-69
2023/03/27 05:55:27;;;;;;;1999.90;999.90;;;2.80;99.90;;;;;;5074341;28;20193;-69
2023/03/27 05:57:53;;;;;;;1999.90;999.90;;;2.90;99.90;;;;;;5074151;28;20926;-69
2023/03/27 06:00:24;;;;;;;1999.90;999.90;;;2.90;99.90;;;;;;5074259;28;20420;-69
2023/03/27 06:02:54;;;;;;;1999.90;999.90;;;2.90;99.90;;;;;;5074079;28;20496;-69
2023/03/27 06:05:20;;;;;;;1999.90;999.90;;;3.00;99.90;;;;;;5074253;28;20182;-69
2023/03/27 06:07:46;;;;;;;1999.90;999.90;;;3.00;99.90;;;;;;5072837;28;20793;-69
2023/03/27 06:10:14;;;;;;;1999.90;999.90;;;3.00;99.90;;;;;;5074055;28;20536;-69
2023/03/27 06:12:40;;;;;;;1999.90;999.90;;;3.00;99.90;;;;;;5073873;28;20320;-68
2023/03/27 06:15:07;;;;;;;1999.90;999.90;;;3.10;99.90;;;;;;5074265;28;20254;-68
2023/03/27 06:17:34;;;;;;;1999.90;999.90;;;3.10;99.90;;;;;;5073956;28;20603;-68
2023/03/27 06:20:00;;;;;;;1999.90;999.90;;;3.10;99.90;;;;;;5074043;28;20409;-69
2023/03/27 06:25:05;;;;;;;1999.90;999.90;;;3.20;99.90;;;;;;5089503;27;20575;-68
2023/03/27 06:27:31;;;;;;;1999.90;999.90;;;3.10;99.90;;;;;;5089562;28;20194;-68
2023/03/27 06:29:56;;;;;;;1999.90;999.90;;;3.10;99.90;;;;;;5089686;28;20396;-68
2023/03/27 06:32:22;;;;;;;1999.90;999.90;;;3.10;99.90;;;;;;5089437;28;20265;-68
2023/03/27 06:34:48;;;;;;;1999.90;999.90;;;3.10;99.90;;;;;;5089272;28;20223;-68
2023/03/27 06:37:14;;;;;;;1999.90;999.90;;;3.10;99.90;;;;;;5089203;28;20613;-67
2023/03/27 06:39:41;;;;;;;1999.90;999.90;;;3.10;99.90;;;;;;5089175;28;20182;-68
2023/03/27 06:42:07;;;;;;;1999.90;999.90;;;3.20;99.90;;;;;;5089499;28;20215;-69
2023/03/27 06:44:32;;;;;;;1999.90;999.90;;;3.20;99.90;;;;;;5088907;28;20880;-69
2023/03/27 06:46:58;;;;;;;1999.90;999.90;;;3.20;99.90;;;;;;5089017;28;20727;-69
2023/03/27 06:49:24;;;;;;;1999.90;999.90;;;3.30;99.90;;;;;;5089092;28;20185;-68
2023/03/27 06:51:49;;;;;;;1999.90;999.90;;;3.30;99.90;;;;;;5089097;28;20170;-68
2023/03/27 06:54:15;;;;;;;1999.90;999.90;;;3.40;99.90;;;;;;5088840;28;20592;-68
2023/03/27 06:56:43;;;;;;;1999.90;999.90;;;3.40;99.90;;;;;;5088808;28;20190;-68
2023/03/27 06:59:08;;;;;;;1999.90;999.90;;;3.50;99.90;;;;;;5089155;28;20208;-68
2023/03/27 07:01:34;;;;;;;1999.90;999.90;;;3.50;99.90;;;;;;5088896;28;20684;-68
2023/03/27 07:04:00;;;;;;;1999.90;999.90;;;3.60;99.90;;;;;;5088621;28;20455;-68
2023/03/27 07:06:26;;;;;;;1999.90;999.90;;;3.70;99.90;;;;;;5088594;28;20468;-69
2023/03/27 07:08:52;;;;;;;1999.90;999.90;;;3.60;99.90;;;;;;5088617;28;20644;-68
2023/03/27 07:11:17;;;;;;;1999.90;999.90;;;3.70;99.90;;;;;;5088976;28;20401;-68
2023/03/27 07:13:43;;;;;;;1999.90;999.90;;;3.70;99.90;;;;;;5088515;28;20167;-69
2023/03/27 07:16:10;;;;;;;1999.90;999.90;;;3.80;99.90;;;;;;5088384;28;20190;-68
2023/03/27 07:18:36;;;;;;;1999.90;999.90;;;3.80;99.90;;;;;;5088594;28;20171;-68
2023/03/27 07:21:02;;;;;;;1999.90;999.90;;;3.90;99.90;;;;;;5088463;28;20543;-68
2023/03/27 07:23:27;;;;;;;1999.90;999.90;;;3.90;99.90;;;;;;5087990;28;20285;-69
2023/03/27 07:25:57;;;;;;;1999.90;999.90;;;4.00;99.90;;;;;;5088583;28;20182;-68
2023/03/27 07:28:23;;;;;;;1999.90;999.90;;;3.90;99.90;;;;;;5088504;28;20517;-68
2023/03/27 07:30:48;;;;;;;1999.90;999.90;;;3.90;99.90;;;;;;5088250;28;20213;-69
2023/03/27 07:33:14;;;;;;;1999.90;999.90;;;3.90;99.90;;;;;;5088100;28;20193;-68
2023/03/27 07:35:44;;;;;;;1999.90;999.90;;;4.10;99.90;;;;;;5078981;28;20210;-68
2023/03/27 07:38:10;;;;;;;1999.90;999.90;;;3.90;99.90;;;;;;5074525;28;20952;-69
2023/03/27 07:40:37;;;;;;;1999.90;999.90;;;4.00;99.90;;;;;;5074710;28;20433;-68
2023/03/27 07:43:05;;;;;;;1999.90;999.90;;;4.10;99.90;;;;;;5074703;28;20506;-68
2023/03/27 07:45:33;;;;;;;1999.90;999.90;;;4.10;99.90;;;;;;5074509;28;20895;-68
2023/03/27 07:48:07;;;;;;;1999.90;999.90;;;4.20;99.90;;;;;;5074467;28;20428;-69
2023/03/27 07:50:33;;;;;;;1999.90;999.90;;;4.30;99.90;;;;;;5074374;28;20444;-68
2023/03/27 07:52:59;;;;;;;1999.90;999.90;;;4.40;99.90;;;;;;5074440;28;20492;-68
2023/03/27 07:55:28;;;;;;;1999.90;999.90;;;4.40;99.90;;;;;;5074424;28;20872;-68
2023/03/27 07:57:54;;;;;;;1999.90;999.90;;;4.40;99.90;;;;;;5074496;28;20629;-68
2023/03/27 08:00:21;;;;;;;1999.90;999.90;;;4.40;99.90;;;;;;5074362;28;20433;-67
2023/03/27 08:02:49;;;;;;;1999.90;999.90;;;4.60;99.90;;;;;;5073895;28;20401;-68
2023/03/27 08:05:15;;;;;;;1999.90;999.90;;;4.70;99.90;;;;;;5074261;28;20406;-69
2023/03/27 08:07:41;;;;;;;1999.90;999.90;;;4.90;99.90;;;;;;5073913;28;20417;-69
2023/03/27 08:10:08;;;;;;;1999.90;999.90;;;4.80;99.90;;;;;;5074313;28;20409;-67
2023/03/27 08:12:35;;;;;;;1999.90;999.90;;;4.90;99.90;;;;;;5074011;28;20397;-68
2023/03/27 08:15:01;;;;;;;1999.90;999.90;;;5.10;99.90;;;;;;5073957;28;20454;-68
2023/03/27 08:17:28;;;;;;;1999.90;999.90;;;5.10;99.90;;;;;;5073683;28;20427;-67
2023/03/27 08:19:54;;;;;;;1999.90;999.90;;;5.20;99.90;;;;;;5073864;28;20458;-68
2023/03/27 08:22:21;;;;;;;1999.90;999.90;;;5.20;99.90;;;;;;5073736;28;20495;-69
2023/03/27 08:24:47;;;;;;;1999.90;999.90;;;5.30;99.90;;;;;;5073395;28;20647;-69
2023/03/27 08:27:14;;;;;;;1999.90;999.90;;;5.50;99.90;;;;;;5072232;28;20433;-69
2023/03/27 08:29:41;;;;;;;1999.90;999.90;;;5.70;99.90;;;;;;5069969;28;20410;-69
2023/03/27 08:32:06;;;;;;;1999.90;999.90;;;5.70;99.90;;;;;;5069090;28;20421;-66
2023/03/27 08:34:32;;;;;;;1999.90;999.90;;;5.70;99.90;;;;;;5069682;28;20451;-68
2023/03/27 08:36:58;;;;;;;1999.90;999.90;;;5.60;99.90;;;;;;5068972;28;20199;-68
2023/03/27 08:39:24;;;;;;;1999.90;999.90;;;5.60;99.90;;;;;;5069055;28;20413;-68
2023/03/27 08:41:58;;;;;;;1999.90;999.90;;;5.70;99.90;;;;;;5069493;28;20249;-68
2023/03/27 08:44:25;;;;;;;1999.90;999.90;;;5.80;99.90;;;;;;5069334;28;20451;-69
2023/03/27 08:47:15;;;;;;;1999.90;999.90;;;5.80;99.90;;;;;;5068027;28;20485;-66
2023/03/27 08:49:46;;;;;;;1999.90;999.90;;;5.90;99.90;;;;;;5070406;28;20394;-70
2023/03/27 08:52:19;;;;;;;1999.90;999.90;;;5.80;99.90;;;;;;5069140;28;20416;-70
2023/03/27 08:54:57;;;;;;;1999.90;999.90;;;5.70;99.90;;;;;;5069306;28;20825;-69
2023/03/27 08:57:23;;;;;;;1999.90;999.90;;;5.80;99.90;;;;;;5069445;28;20448;-69
2023/03/27 08:59:56;;;;;;;1999.90;999.90;;;5.70;99.90;;;;;;5068696;28;20546;-69
2023/03/27 09:02:36;;;;;;;1999.90;999.90;;;5.60;99.90;;;;;;5069364;28;20496;-67
2023/03/27 09:05:16;;;;;;;1999.90;999.90;;;5.50;99.90;;;;;;5068222;28;20950;-69
2023/03/27 09:07:48;;;;;;;1999.90;999.90;;;5.50;99.90;;;;;;5068758;28;20980;-70
2023/03/27 09:10:23;;;;;;;1999.90;999.90;;;5.50;99.90;;;;;;5065810;28;20406;-67
2023/03/27 09:13:19;;;;;;;1999.90;999.90;;;5.40;99.90;;;;;;5067625;28;20504;-69
2023/03/27 09:16:05;;;;;;;1999.90;999.90;;;5.30;99.90;;;;;;5068242;28;20611;-69
2023/03/27 09:19:05;;;;;;;1999.90;999.90;;;5.30;99.90;;;;;;5068866;28;20462;-70
2023/03/27 09:21:40;;;;;;;1999.90;999.90;;;5.30;99.90;;;;;;5067177;28;20433;-69
2023/03/27 09:24:27;;;;;;;1999.90;999.90;;;5.40;99.90;;;;;;5067105;28;20535;-67
2023/03/27 09:26:53;;;;;;;1999.90;999.90;;;5.60;99.90;;;;;;5067850;28;20433;-70
2023/03/27 09:29:21;;;;;;;1999.90;999.90;;;5.70;99.90;;;;;;5067351;28;20974;-69
2023/03/27 09:31:49;;;;;;;1999.90;999.90;;;6.00;99.90;;;;;;5066026;28;20926;-68
2023/03/27 09:34:27;;;;;;;1999.90;999.90;;;6.30;99.90;;;;;;5067534;28;20417;-68
2023/03/27 09:36:54;;;;;;;1999.90;999.90;;;6.50;99.90;;;;;;5067568;28;20432;-67
2023/03/27 09:39:30;;;;;;;1999.90;999.90;;;6.50;99.90;;;;;;5067689;28;21237;-67
2023/03/27 09:42:09;;;;;;;1999.90;999.90;;;6.30;99.90;;;;;;5067008;28;21236;-70
2023/03/27 09:44:40;;;;;;;1999.90;999.90;;;6.30;99.90;;;;;;5070047;28;21223;-71
2023/03/27 09:47:14;;;;;;;1999.90;999.90;;;6.10;99.90;;;;;;5069408;28;20510;-71
2023/03/27 09:49:47;;;;;;;1999.90;999.90;;;6.10;99.90;;;;;;5069266;28;20472;-69
2023/03/27 09:52:42;;;;;;;1999.90;999.90;;;6.40;99.90;;;;;;5066249;28;20409;-68
2023/03/27 09:55:23;;;;;;;1999.90;999.90;;;6.50;99.90;;;;;;5058228;28;20421;-68
2023/03/27 09:57:51;;;;;;;1999.90;999.90;;;6.80;99.90;;;;;;5067216;28;20422;-67
2023/03/27 10:00:29;;;;;;;1999.90;999.90;;;6.80;99.90;;;;;;5067425;28;20508;-69
2023/03/27 10:03:16;;;;;;;1999.90;999.90;;;6.60;99.90;;;;;;5066464;28;20466;-68
2023/03/27 10:05:42;;;;;;;1999.90;999.90;;;6.10;99.90;;;;;;5066923;28;20416;-67
2023/03/27 10:08:39;;;;;;;1999.90;999.90;;;6.20;99.90;;;;;;5066936;28;20413;-69
2023/03/27 10:11:07;;;;;;;1999.90;999.90;;;6.30;99.90;;;;;;5066835;28;20970;-70
2023/03/27 10:13:33;;;;;;;1999.90;999.90;;;6.50;99.90;;;;;;5066567;28;20422;-70
2023/03/27 10:16:03;;;;;;;1999.90;999.90;;;6.40;99.90;;;;;;5067064;28;20437;-68
2023/03/27 10:18:32;;;;;;;1999.90;999.90;;;6.30;99.90;;;;;;5066610;28;20539;-73
2023/03/27 10:21:00;;;;;;;1999.90;999.90;;;6.50;99.90;;;;;;5069008;28;20413;-70
2023/03/27 10:23:44;;;;;;;1999.90;999.90;;;6.70;99.90;;;;;;5070923;28;20449;-73
2023/03/27 10:26:15;;;;;;;1999.90;999.90;;;6.90;99.90;;;;;;5067036;28;20433;-74
2023/03/27 10:28:45;;;;;;;1999.90;999.90;;;7.20;99.90;;;;;;5067341;28;20409;-69
2023/03/27 10:31:28;;;;;;;1999.90;999.90;;;7.20;99.90;;;;;;5067393;28;20424;-74
2023/03/27 10:33:55;;;;;;;1999.90;999.90;;;7.10;99.90;;;;;;5067397;28;20508;-72
2023/03/27 10:36:21;;;;;;;1999.90;999.90;;;7.10;99.90;;;;;;5066264;28;20437;-75
2023/03/27 10:38:57;;;;;;;1999.90;999.90;;;7.20;99.90;;;;;;5066159;28;20406;-72
2023/03/27 10:41:23;;;;;;;1999.90;999.90;;;7.20;99.90;;;;;;5066267;28;20436;-70
2023/03/27 10:43:49;;;;;;;1999.90;999.90;;;7.50;99.90;;;;;;5066283;28;20972;-69
2023/03/27 10:46:24;;;;;;;1999.90;999.90;;;7.20;99.90;;;;;;5065943;28;20429;-68
2023/03/27 10:48:57;;;;;;;1999.90;999.90;;;7.10;99.90;;;;;;5065995;28;20523;-70
2023/03/27 10:51:24;;;;;;;1999.90;999.90;;;7.30;99.90;;;;;;5065846;28;20428;-71
2023/03/27 10:54:25;;;;;;;1999.90;999.90;;;7.30;99.90;;;;;;5066676;28;20456;-69
2023/03/27 10:57:15;;;;;;;1999.90;999.90;;;7.20;99.90;;;;;;5048683;28;20429;-71
2023/03/27 10:59:49;;;;;;;1999.90;999.90;;;7.00;99.90;;;;;;5066640;28;20513;-72
2023/03/27 11:02:21;;;;;;;1999.90;999.90;;;6.90;99.90;;;;;;5066339;28;20416;-71
2023/03/27 11:05:24;;;;;;;1999.90;999.90;;;6.80;99.90;;;;;;5066157;28;20628;-71
2023/03/27 11:08:07;;;;;;;1999.90;999.90;;;7.10;99.90;;;;;;5023493;28;20439;-69
2023/03/27 11:10:40;;;;;;;1999.90;999.90;;;6.90;99.90;;;;;;5064883;28;20447;-69
2023/03/27 11:13:25;;;;;;;1999.90;999.90;;;7.20;99.90;;;;;;5069705;28;20540;-68
2023/03/27 11:15:58;;;;;;;1999.90;999.90;;;7.70;99.90;;;;;;5069924;28;20446;-70
2023/03/27 11:18:31;;;;;;;1999.90;999.90;;;7.80;99.90;;;;;;5070339;28;20456;-72
2023/03/27 11:21:15;;;;;;;1999.90;999.90;;;8.00;99.90;;;;;;5069493;28;20418;-72
2023/03/27 11:23:53;;;;;;;1999.90;999.90;;;8.10;99.90;;;;;;5069971;28;21008;-72
2023/03/27 11:26:22;;;;;;;1999.90;999.90;;;8.50;99.90;;;;;;5069690;28;20433;-72
2023/03/27 11:29:14;;;;;;;1999.90;999.90;;;8.50;99.90;;;;;;5069446;28;20409;-72
2023/03/27 11:31:47;;;;;;;1999.90;999.90;;;8.40;99.90;;;;;;5069247;28;20414;-73
2023/03/27 11:34:28;;;;;;;1999.90;999.90;;;8.30;99.90;;;;;;5069774;28;20505;-71
2023/03/27 11:37:00;;;;;;;1999.90;999.90;;;8.50;99.90;;;;;;5068786;28;20837;-74
2023/03/27 11:39:42;;;;;;;1999.90;999.90;;;8.50;99.90;;;;;;5069901;28;20482;-72
2023/03/27 11:42:19;;;;;;;1999.90;999.90;;;8.50;99.90;;;;;;5069299;28;20472;-72
2023/03/27 11:44:45;;;;;;;1999.90;999.90;;;8.70;99.90;;;;;;5069196;28;20460;-73
2023/03/27 11:47:23;;;;;;;1999.90;999.90;;;8.50;99.90;;;;;;5068968;28;20989;-72
2023/03/27 11:50:23;;;;;;;1999.90;999.90;;;8.90;99.90;;;;;;5069574;28;21462;-71
2023/03/27 11:53:00;;;;;;;1999.90;999.90;;;9.50;99.90;;;;;;5068395;28;20416;-72
2023/03/27 11:55:39;;;;;;;1999.90;999.90;;;10.00;99.90;;;;;;5068858;28;20510;-71
2023/03/27 11:58:31;;;;;;;1999.90;999.90;;;10.40;99.90;;;;;;5068209;28;20519;-71
2023/03/27 12:01:25;;;;;;;1999.90;999.90;;;10.80;99.90;;;;;;5069250;28;20409;-73
2023/03/27 12:04:04;;;;;;;1999.90;999.90;;;10.90;97.60;;;;;;5068484;28;21011;-71
2023/03/27 12:06:42;;;;;;;1999.90;999.90;;;10.30;99.90;;;;;;5068336;28;20433;-72
2023/03/27 12:09:54;;;;;;;1999.90;999.90;;;9.30;99.90;;;;;;5068721;28;20420;-72
2023/03/27 12:12:41;;;;;;;1999.90;999.90;;;8.70;99.90;;;;;;5026617;28;20418;-72
2023/03/27 12:15:22;;;;;;;1999.90;999.90;;;8.20;99.90;;;;;;5068546;28;20420;-73
2023/03/27 12:18:18;;;;;;;1999.90;999.90;;;7.90;99.90;;;;;;5067616;28;20433;-71
2023/03/27 12:20:55;;;;;;;1999.90;999.90;;;7.90;99.90;;;;;;5068538;28;20483;-72
2023/03/27 12:23:25;;;;;;;1999.90;999.90;;;8.00;99.90;;;;;;5068443;28;20483;-72
2023/03/27 12:25:51;;;;;;;1999.90;999.90;;;7.60;99.90;;;;;;5067341;28;20830;-72
2023/03/27 12:28:43;;;;;;;1999.90;999.90;;;7.60;99.90;;;;;;5067781;28;20423;-72
2023/03/27 12:31:27;;;;;;;1999.90;999.90;;;7.40;99.90;;;;;;5068475;28;20183;-71
2023/03/27 12:34:03;;;;;;;1999.90;999.90;;;7.50;99.90;;;;;;5068156;28;21012;-72
2023/03/27 12:36:36;;;;;;;1999.90;999.90;;;8.30;99.90;;;;;;5068614;28;20427;-69